sensor_id;sensor_type;location;lat;lon;timestamp;P1;durP1;ratioP1;P2;durP2;ratioP2
17201;SDS011;8717;53.588;10.176;2023-07-28T00:00:44;4.00;;;3.50;;
17201;SDS011;8717;53.588;10.176;2023-07-28T00:03:12;7.83;;;3.37;;
17201;SDS011;8717;53.588;10.176;2023-07-28T00:05:38;4.00;;;3.70;;
17201;SDS011;8717;53.588;10.176;2023-07-28T00:08:05;3.80;;;3.43;;
17201;SDS011;8717;53.588;10.176;2023-07-28T00:10:32;4.83;;;3.37;;
17201;SDS011;8717;53.588;10.176;2023-07-28T00:12:59;3.73;;;3.43;;
17201;SDS011;8717;53.588;10.176;2023-07-28T00:15:28;4.20;;;3.80;;
17201;SDS011;8717;53.588;10.176;2023-07-28T00:17:55;3.97;;;3.50;;
17201;SDS011;8717;53.588;10.176;2023-07-28T00:20:22;3.77;;;3.40;;
17201;SDS011;8717;53.588;10.176;2023-07-28T00:22:49;4.07;;;3.50;;
17201;SDS011;8717;53.588;10.176;2023-07-28T00:25:16;4.13;;;3.70;;
17201;SDS011;8717;53.588;10.176;2023-07-28T00:27:44;3.43;;;3.03;;
17201;SDS011;8717;53.588;10.176;2023-07-28T00:30:11;3.93;;;3.57;;
17201;SDS011;8717;53.588;10.176;2023-07-28T00:32:39;3.57;;;3.23;;
17201;SDS011;8717;53.588;10.176;2023-07-28T00:35:08;3.13;;;2.83;;
17201;SDS011;8717;53.588;10.176;2023-07-28T00:37:35;3.73;;;3.23;;
17201;SDS011;8717;53.588;10.176;2023-07-28T00:40:02;3.53;;;3.23;;
17201;SDS011;8717;53.588;10.176;2023-07-28T00:42:30;3.20;;;2.90;;
17201;SDS011;8717;53.588;10.176;2023-07-28T00:44:56;3.47;;;3.17;;
17201;SDS011;8717;53.588;10.176;2023-07-28T00:47:23;3.70;;;3.30;;
17201;SDS011;8717;53.588;10.176;2023-07-28T00:49:52;3.20;;;2.90;;
17201;SDS011;8717;53.588;10.176;2023-07-28T00:52:19;3.20;;;2.90;;
17201;SDS011;8717;53.588;10.176;2023-07-28T00:54:45;2.97;;;2.70;;
17201;SDS011;8717;53.588;10.176;2023-07-28T00:57:12;2.90;;;2.70;;
17201;SDS011;8717;53.588;10.176;2023-07-28T00:59:39;2.50;;;2.30;;
17201;SDS011;8717;53.588;10.176;2023-07-28T01:02:06;2.67;;;2.40;;
17201;SDS011;8717;53.588;10.176;2023-07-28T01:04:33;2.90;;;2.20;;
17201;SDS011;8717;53.588;10.176;2023-07-28T01:07:03;2.50;;;2.30;;
17201;SDS011;8717;53.588;10.176;2023-07-28T01:09:36;2.40;;;2.20;;
17201;SDS011;8717;53.588;10.176;2023-07-28T01:12:09;2.03;;;1.83;;
17201;SDS011;8717;53.588;10.176;2023-07-28T01:14:36;2.40;;;2.20;;
17201;SDS011;8717;53.588;10.176;2023-07-28T01:17:02;2.93;;;2.30;;
17201;SDS011;8717;53.588;10.176;2023-07-28T01:19:29;2.43;;;2.23;;
17201;SDS011;8717;53.588;10.176;2023-07-28T01:21:57;2.50;;;2.30;;
17201;SDS011;8717;53.588;10.176;2023-07-28T01:24:42;2.40;;;2.20;;
17201;SDS011;8717;53.588;10.176;2023-07-28T01:27:18;2.30;;;2.10;;
17201;SDS011;8717;53.588;10.176;2023-07-28T01:29:46;2.70;;;2.50;;
17201;SDS011;8717;53.588;10.176;2023-07-28T01:32:14;3.30;;;2.27;;
17201;SDS011;8717;53.588;10.176;2023-07-28T01:34:41;3.07;;;2.60;;
17201;SDS011;8717;53.588;10.176;2023-07-28T01:37:07;2.70;;;2.50;;
17201;SDS011;8717;53.588;10.176;2023-07-28T01:39:34;2.57;;;2.37;;
17201;SDS011;8717;53.588;10.176;2023-07-28T01:42:01;2.83;;;2.53;;
17201;SDS011;8717;53.588;10.176;2023-07-28T01:44:29;3.10;;;2.90;;
17201;SDS011;8717;53.588;10.176;2023-07-28T01:46:56;2.97;;;2.63;;
17201;SDS011;8717;53.588;10.176;2023-07-28T01:49:23;3.77;;;2.60;;
17201;SDS011;8717;53.588;10.176;2023-07-28T01:51:49;2.73;;;2.53;;
17201;SDS011;8717;53.588;10.176;2023-07-28T01:54:16;2.53;;;2.33;;
17201;SDS011;8717;53.588;10.176;2023-07-28T01:56:43;2.80;;;2.60;;
17201;SDS011;8717;53.588;10.176;2023-07-28T01:59:10;3.13;;;2.83;;
17201;SDS011;8717;53.588;10.176;2023-07-28T02:01:38;3.40;;;2.80;;
17201;SDS011;8717;53.588;10.176;2023-07-28T02:04:04;3.23;;;2.80;;
17201;SDS011;8717;53.588;10.176;2023-07-28T02:06:31;2.97;;;2.70;;
17201;SDS011;8717;53.588;10.176;2023-07-28T02:08:58;3.00;;;2.80;;
17201;SDS011;8717;53.588;10.176;2023-07-28T02:11:24;3.40;;;2.80;;
17201;SDS011;8717;53.588;10.176;2023-07-28T02:13:51;3.20;;;2.90;;
17201;SDS011;8717;53.588;10.176;2023-07-28T02:16:18;3.33;;;3.03;;
17201;SDS011;8717;53.588;10.176;2023-07-28T02:18:46;3.07;;;2.77;;
17201;SDS011;8717;53.588;10.176;2023-07-28T02:21:13;2.60;;;2.40;;
17201;SDS011;8717;53.588;10.176;2023-07-28T02:23:40;2.70;;;2.50;;
17201;SDS011;8717;53.588;10.176;2023-07-28T02:26:07;3.20;;;2.17;;
17201;SDS011;8717;53.588;10.176;2023-07-28T02:28:34;2.60;;;2.40;;
17201;SDS011;8717;53.588;10.176;2023-07-28T02:31:01;2.60;;;2.40;;
17201;SDS011;8717;53.588;10.176;2023-07-28T02:33:27;2.60;;;2.40;;
17201;SDS011;8717;53.588;10.176;2023-07-28T02:35:58;2.80;;;2.60;;
17201;SDS011;8717;53.588;10.176;2023-07-28T02:38:25;2.97;;;2.20;;
17201;SDS011;8717;53.588;10.176;2023-07-28T02:40:51;2.50;;;2.30;;
17201;SDS011;8717;53.588;10.176;2023-07-28T02:43:18;2.90;;;2.60;;
17201;SDS011;8717;53.588;10.176;2023-07-28T02:45:47;2.57;;;2.37;;
17201;SDS011;8717;53.588;10.176;2023-07-28T02:48:14;2.80;;;2.60;;
17201;SDS011;8717;53.588;10.176;2023-07-28T02:50:45;2.67;;;2.47;;
17201;SDS011;8717;53.588;10.176;2023-07-28T02:53:13;2.70;;;2.50;;
17201;SDS011;8717;53.588;10.176;2023-07-28T02:55:40;3.43;;;3.07;;
17201;SDS011;8717;53.588;10.176;2023-07-28T02:58:07;3.50;;;3.20;;
17201;SDS011;8717;53.588;10.176;2023-07-28T03:00:36;4.60;;;3.20;;
17201;SDS011;8717;53.588;10.176;2023-07-28T03:03:03;4.33;;;3.93;;
17201;SDS011;8717;53.588;10.176;2023-07-28T03:05:30;4.50;;;4.10;;
17201;SDS011;8717;53.588;10.176;2023-07-28T03:08:21;4.40;;;4.00;;
17201;SDS011;8717;53.588;10.176;2023-07-28T03:10:49;4.20;;;3.90;;
17201;SDS011;8717;53.588;10.176;2023-07-28T03:13:15;4.23;;;3.60;;
17201;SDS011;8717;53.588;10.176;2023-07-28T03:15:44;3.63;;;3.33;;
17201;SDS011;8717;53.588;10.176;2023-07-28T03:18:10;3.53;;;3.23;;
17201;SDS011;8717;53.588;10.176;2023-07-28T03:20:38;6.50;;;3.63;;
17201;SDS011;8717;53.588;10.176;2023-07-28T03:23:05;3.13;;;2.83;;
17201;SDS011;8717;53.588;10.176;2023-07-28T03:25:33;2.70;;;2.50;;
17201;SDS011;8717;53.588;10.176;2023-07-28T03:28:00;3.10;;;2.80;;
17201;SDS011;8717;53.588;10.176;2023-07-28T03:30:27;2.70;;;2.50;;
17201;SDS011;8717;53.588;10.176;2023-07-28T03:32:53;3.13;;;2.83;;
17201;SDS011;8717;53.588;10.176;2023-07-28T03:35:20;3.50;;;2.50;;
17201;SDS011;8717;53.588;10.176;2023-07-28T03:37:56;3.47;;;2.70;;
17201;SDS011;8717;53.588;10.176;2023-07-28T03:40:23;2.70;;;2.50;;
17201;SDS011;8717;53.588;10.176;2023-07-28T03:42:54;2.50;;;2.30;;
17201;SDS011;8717;53.588;10.176;2023-07-28T03:45:21;2.67;;;2.47;;
17201;SDS011;8717;53.588;10.176;2023-07-28T03:47:48;2.43;;;2.23;;
17201;SDS011;8717;53.588;10.176;2023-07-28T03:50:15;2.37;;;2.20;;
17201;SDS011;8717;53.588;10.176;2023-07-28T03:52:41;2.40;;;2.20;;
17201;SDS011;8717;53.588;10.176;2023-07-28T03:55:08;4.60;;;2.50;;
17201;SDS011;8717;53.588;10.176;2023-07-28T03:57:35;2.70;;;2.50;;
17201;SDS011;8717;53.588;10.176;2023-07-28T04:00:03;2.33;;;2.13;;
17201;SDS011;8717;53.588;10.176;2023-07-28T04:02:37;2.40;;;2.20;;
17201;SDS011;8717;53.588;10.176;2023-07-28T04:05:04;2.70;;;2.50;;
17201;SDS011;8717;53.588;10.176;2023-07-28T04:07:32;2.73;;;2.53;;
17201;SDS011;8717;53.588;10.176;2023-07-28T04:09:59;2.53;;;2.33;;
17201;SDS011;8717;53.588;10.176;2023-07-28T04:12:26;2.83;;;2.40;;
17201;SDS011;8717;53.588;10.176;2023-07-28T04:14:52;2.80;;;2.60;;
17201;SDS011;8717;53.588;10.176;2023-07-28T04:17:20;2.90;;;2.70;;
17201;SDS011;8717;53.588;10.176;2023-07-28T04:19:47;2.90;;;2.47;;
17201;SDS011;8717;53.588;10.176;2023-07-28T04:22:14;3.20;;;3.00;;
17201;SDS011;8717;53.588;10.176;2023-07-28T04:24:46;3.37;;;3.07;;
17201;SDS011;8717;53.588;10.176;2023-07-28T04:27:13;3.40;;;3.03;;
17201;SDS011;8717;53.588;10.176;2023-07-28T04:29:39;25.83;;;4.87;;
17201;SDS011;8717;53.588;10.176;2023-07-28T04:32:08;19.63;;;4.63;;
17201;SDS011;8717;53.588;10.176;2023-07-28T04:34:36;3.20;;;2.73;;
17201;SDS011;8717;53.588;10.176;2023-07-28T04:37:11;4.27;;;3.63;;
17201;SDS011;8717;53.588;10.176;2023-07-28T04:39:58;3.47;;;3.00;;
17201;SDS011;8717;53.588;10.176;2023-07-28T04:42:31;3.83;;;2.87;;
17201;SDS011;8717;53.588;10.176;2023-07-28T04:44:58;3.20;;;3.00;;
17201;SDS011;8717;53.588;10.176;2023-07-28T04:47:24;3.13;;;2.83;;
17201;SDS011;8717;53.588;10.176;2023-07-28T04:49:52;3.03;;;2.83;;
17201;SDS011;8717;53.588;10.176;2023-07-28T04:52:54;8.37;;;3.20;;
17201;SDS011;8717;53.588;10.176;2023-07-28T04:55:41;3.30;;;3.00;;
17201;SDS011;8717;53.588;10.176;2023-07-28T04:58:08;3.40;;;3.07;;
17201;SDS011;8717;53.588;10.176;2023-07-28T05:00:44;3.40;;;3.10;;
17201;SDS011;8717;53.588;10.176;2023-07-28T05:03:11;3.40;;;3.10;;
17201;SDS011;8717;53.588;10.176;2023-07-28T05:05:46;3.17;;;2.93;;
17201;SDS011;8717;53.588;10.176;2023-07-28T05:08:13;3.10;;;2.60;;
17201;SDS011;8717;53.588;10.176;2023-07-28T05:10:40;3.20;;;3.00;;
17201;SDS011;8717;53.588;10.176;2023-07-28T05:13:08;2.97;;;2.77;;
17201;SDS011;8717;53.588;10.176;2023-07-28T05:15:35;2.83;;;2.63;;
17201;SDS011;8717;53.588;10.176;2023-07-28T05:18:03;3.30;;;3.00;;
17201;SDS011;8717;53.588;10.176;2023-07-28T05:20:38;3.23;;;3.00;;
17201;SDS011;8717;53.588;10.176;2023-07-28T05:23:10;3.97;;;2.87;;
17201;SDS011;8717;53.588;10.176;2023-07-28T05:25:37;3.10;;;2.87;;
17201;SDS011;8717;53.588;10.176;2023-07-28T05:28:04;3.30;;;3.00;;
17201;SDS011;8717;53.588;10.176;2023-07-28T05:30:33;3.97;;;3.00;;
17201;SDS011;8717;53.588;10.176;2023-07-28T05:33:00;2.90;;;2.60;;
17201;SDS011;8717;53.588;10.176;2023-07-28T05:35:40;3.30;;;3.00;;
17201;SDS011;8717;53.588;10.176;2023-07-28T05:38:07;3.30;;;3.00;;
17201;SDS011;8717;53.588;10.176;2023-07-28T05:40:36;3.43;;;3.00;;
17201;SDS011;8717;53.588;10.176;2023-07-28T05:43:03;3.53;;;3.30;;
17201;SDS011;8717;53.588;10.176;2023-07-28T05:45:30;4.00;;;3.70;;
17201;SDS011;8717;53.588;10.176;2023-07-28T05:47:57;3.97;;;3.50;;
17201;SDS011;8717;53.588;10.176;2023-07-28T05:50:23;4.03;;;3.73;;
17201;SDS011;8717;53.588;10.176;2023-07-28T05:52:50;3.37;;;3.07;;
17201;SDS011;8717;53.588;10.176;2023-07-28T05:55:17;3.50;;;3.20;;
17201;SDS011;8717;53.588;10.176;2023-07-28T05:57:45;3.73;;;3.43;;
17201;SDS011;8717;53.588;10.176;2023-07-28T06:00:12;3.70;;;3.40;;
17201;SDS011;8717;53.588;10.176;2023-07-28T06:02:39;3.20;;;3.00;;
17201;SDS011;8717;53.588;10.176;2023-07-28T06:05:08;3.57;;;3.27;;
17201;SDS011;8717;53.588;10.176;2023-07-28T06:07:35;3.47;;;3.17;;
17201;SDS011;8717;53.588;10.176;2023-07-28T06:10:01;3.60;;;3.27;;
17201;SDS011;8717;53.588;10.176;2023-07-28T06:12:28;3.80;;;3.40;;
17201;SDS011;8717;53.588;10.176;2023-07-28T06:14:57;3.17;;;2.87;;
17201;SDS011;8717;53.588;10.176;2023-07-28T06:17:23;2.67;;;2.47;;
17201;SDS011;8717;53.588;10.176;2023-07-28T06:19:52;4.10;;;3.20;;
17201;SDS011;8717;53.588;10.176;2023-07-28T06:22:19;3.03;;;2.73;;
17201;SDS011;8717;53.588;10.176;2023-07-28T06:24:45;3.00;;;2.80;;
17201;SDS011;8717;53.588;10.176;2023-07-28T06:27:12;3.27;;;2.97;;
17201;SDS011;8717;53.588;10.176;2023-07-28T06:29:39;3.07;;;2.80;;
17201;SDS011;8717;53.588;10.176;2023-07-28T06:32:08;2.83;;;2.50;;
17201;SDS011;8717;53.588;10.176;2023-07-28T06:34:35;3.17;;;2.87;;
17201;SDS011;8717;53.588;10.176;2023-07-28T06:37:02;3.57;;;2.77;;
17201;SDS011;8717;53.588;10.176;2023-07-28T06:39:28;4.00;;;2.23;;
17201;SDS011;8717;53.588;10.176;2023-07-28T06:41:55;2.60;;;2.40;;
17201;SDS011;8717;53.588;10.176;2023-07-28T06:44:23;2.50;;;2.30;;
17201;SDS011;8717;53.588;10.176;2023-07-28T06:46:50;2.87;;;2.43;;
17201;SDS011;8717;53.588;10.176;2023-07-28T06:49:19;2.60;;;2.40;;
17201;SDS011;8717;53.588;10.176;2023-07-28T06:51:45;2.40;;;2.20;;
17201;SDS011;8717;53.588;10.176;2023-07-28T06:54:12;2.57;;;2.30;;
17201;SDS011;8717;53.588;10.176;2023-07-28T06:56:39;2.23;;;2.03;;
17201;SDS011;8717;53.588;10.176;2023-07-28T06:59:06;2.50;;;2.03;;
17201;SDS011;8717;53.588;10.176;2023-07-28T07:01:33;2.50;;;2.20;;
17201;SDS011;8717;53.588;10.176;2023-07-28T07:04:00;2.47;;;2.27;;
17201;SDS011;8717;53.588;10.176;2023-07-28T07:06:28;2.83;;;2.47;;
17201;SDS011;8717;53.588;10.176;2023-07-28T07:08:55;2.57;;;2.37;;
17201;SDS011;8717;53.588;10.176;2023-07-28T07:11:22;2.27;;;2.07;;
17201;SDS011;8717;53.588;10.176;2023-07-28T07:13:49;3.13;;;2.87;;
17201;SDS011;8717;53.588;10.176;2023-07-28T07:16:16;2.60;;;2.40;;
17201;SDS011;8717;53.588;10.176;2023-07-28T07:18:43;2.42;;;2.30;;
17201;SDS011;8717;53.588;10.176;2023-07-28T07:21:10;3.37;;;2.20;;
17201;SDS011;8717;53.588;10.176;2023-07-28T07:23:38;2.50;;;2.30;;
17201;SDS011;8717;53.588;10.176;2023-07-28T07:26:23;3.85;;;2.47;;
17201;SDS011;8717;53.588;10.176;2023-07-28T07:28:50;2.90;;;2.60;;
17201;SDS011;8717;53.588;10.176;2023-07-28T07:31:17;2.67;;;2.42;;
17201;SDS011;8717;53.588;10.176;2023-07-28T07:33:44;2.55;;;2.25;;
17201;SDS011;8717;53.588;10.176;2023-07-28T07:36:12;2.08;;;1.98;;
17201;SDS011;8717;53.588;10.176;2023-07-28T07:38:40;2.05;;;1.90;;
17201;SDS011;8717;53.588;10.176;2023-07-28T07:41:07;3.20;;;1.77;;
17201;SDS011;8717;53.588;10.176;2023-07-28T07:43:36;2.83;;;2.35;;
17201;SDS011;8717;53.588;10.176;2023-07-28T07:46:02;2.95;;;1.98;;
17201;SDS011;8717;53.588;10.176;2023-07-28T07:48:29;2.38;;;2.17;;
17201;SDS011;8717;53.588;10.176;2023-07-28T07:50:56;2.30;;;2.10;;
17201;SDS011;8717;53.588;10.176;2023-07-28T07:53:23;4.82;;;2.85;;
17201;SDS011;8717;53.588;10.176;2023-07-28T07:55:51;3.25;;;2.50;;
17201;SDS011;8717;53.588;10.176;2023-07-28T07:58:18;3.05;;;2.72;;
17201;SDS011;8717;53.588;10.176;2023-07-28T08:00:44;2.78;;;2.55;;
17201;SDS011;8717;53.588;10.176;2023-07-28T08:03:11;2.60;;;2.40;;
17201;SDS011;8717;53.588;10.176;2023-07-28T08:05:38;2.58;;;2.38;;
17201;SDS011;8717;53.588;10.176;2023-07-28T08:08:05;2.95;;;2.65;;
17201;SDS011;8717;53.588;10.176;2023-07-28T08:10:32;2.30;;;2.05;;
17201;SDS011;8717;53.588;10.176;2023-07-28T08:13:00;1.60;;;1.50;;
17201;SDS011;8717;53.588;10.176;2023-07-28T08:15:29;2.38;;;2.00;;
17201;SDS011;8717;53.588;10.176;2023-07-28T08:17:55;2.85;;;2.03;;
17201;SDS011;8717;53.588;10.176;2023-07-28T08:20:22;1.90;;;1.70;;
17201;SDS011;8717;53.588;10.176;2023-07-28T08:22:49;3.28;;;2.20;;
17201;SDS011;8717;53.588;10.176;2023-07-28T08:25:15;2.33;;;2.00;;
17201;SDS011;8717;53.588;10.176;2023-07-28T08:27:43;2.55;;;1.60;;
17201;SDS011;8717;53.588;10.176;2023-07-28T08:30:12;3.45;;;1.50;;
17201;SDS011;8717;53.588;10.176;2023-07-28T08:32:40;1.40;;;1.30;;
17201;SDS011;8717;53.588;10.176;2023-07-28T08:35:07;1.45;;;1.35;;
17201;SDS011;8717;53.588;10.176;2023-07-28T08:37:34;1.30;;;1.20;;
17201;SDS011;8717;53.588;10.176;2023-07-28T08:40:01;2.28;;;1.38;;
17201;SDS011;8717;53.588;10.176;2023-07-28T08:42:30;1.85;;;1.58;;
17201;SDS011;8717;53.588;10.176;2023-07-28T08:44:57;1.50;;;1.40;;
17201;SDS011;8717;53.588;10.176;2023-07-28T08:47:25;1.45;;;1.30;;
17201;SDS011;8717;53.588;10.176;2023-07-28T08:49:52;1.92;;;1.20;;
17201;SDS011;8717;53.588;10.176;2023-07-28T08:52:20;1.50;;;1.40;;
17201;SDS011;8717;53.588;10.176;2023-07-28T08:54:47;1.65;;;1.50;;
17201;SDS011;8717;53.588;10.176;2023-07-28T08:57:13;1.58;;;1.42;;
17201;SDS011;8717;53.588;10.176;2023-07-28T08:59:40;1.52;;;1.33;;
17201;SDS011;8717;53.588;10.176;2023-07-28T09:02:12;1.35;;;1.25;;
17201;SDS011;8717;53.588;10.176;2023-07-28T09:04:42;1.75;;;1.50;;
17201;SDS011;8717;53.588;10.176;2023-07-28T09:07:09;1.55;;;1.45;;
17201;SDS011;8717;53.588;10.176;2023-07-28T09:09:36;3.38;;;1.50;;
17201;SDS011;8717;53.588;10.176;2023-07-28T09:12:02;1.95;;;1.38;;
17201;SDS011;8717;53.588;10.176;2023-07-28T09:14:30;1.38;;;1.27;;
17201;SDS011;8717;53.588;10.176;2023-07-28T09:16:59;2.70;;;1.48;;
17201;SDS011;8717;53.588;10.176;2023-07-28T09:19:32;1.75;;;1.45;;
17201;SDS011;8717;53.588;10.176;2023-07-28T09:22:01;1.60;;;1.50;;
17201;SDS011;8717;53.588;10.176;2023-07-28T09:24:30;2.13;;;1.95;;
17201;SDS011;8717;53.588;10.176;2023-07-28T09:26:58;4.30;;;2.00;;
17201;SDS011;8717;53.588;10.176;2023-07-28T09:29:26;1.70;;;1.60;;
17201;SDS011;8717;53.588;10.176;2023-07-28T09:31:53;2.40;;;1.60;;
17201;SDS011;8717;53.588;10.176;2023-07-28T09:34:29;2.08;;;1.67;;
17201;SDS011;8717;53.588;10.176;2023-07-28T09:36:57;1.50;;;1.40;;
17201;SDS011;8717;53.588;10.176;2023-07-28T09:39:26;1.95;;;1.50;;
17201;SDS011;8717;53.588;10.176;2023-07-28T09:41:53;1.88;;;1.70;;
17201;SDS011;8717;53.588;10.176;2023-07-28T09:44:22;1.58;;;1.40;;
17201;SDS011;8717;53.588;10.176;2023-07-28T09:46:49;1.50;;;1.40;;
17201;SDS011;8717;53.588;10.176;2023-07-28T09:49:19;1.42;;;1.33;;
17201;SDS011;8717;53.588;10.176;2023-07-28T09:51:48;1.40;;;1.30;;
17201;SDS011;8717;53.588;10.176;2023-07-28T09:54:18;1.58;;;1.42;;
17201;SDS011;8717;53.588;10.176;2023-07-28T09:56:54;1.88;;;1.70;;
17201;SDS011;8717;53.588;10.176;2023-07-28T09:59:24;2.33;;;1.40;;
17201;SDS011;8717;53.588;10.176;2023-07-28T10:01:55;1.40;;;1.23;;
17201;SDS011;8717;53.588;10.176;2023-07-28T10:04:22;3.10;;;1.73;;
17201;SDS011;8717;53.588;10.176;2023-07-28T10:06:49;2.33;;;1.00;;
17201;SDS011;8717;53.588;10.176;2023-07-28T10:09:21;1.45;;;1.35;;
17201;SDS011;8717;53.588;10.176;2023-07-28T10:11:49;1.50;;;1.40;;
17201;SDS011;8717;53.588;10.176;2023-07-28T10:14:26;2.20;;;1.23;;
17201;SDS011;8717;53.588;10.176;2023-07-28T10:16:54;1.77;;;1.02;;
17201;SDS011;8717;53.588;10.176;2023-07-28T10:19:21;1.45;;;1.33;;
17201;SDS011;8717;53.588;10.176;2023-07-28T10:21:47;1.17;;;1.10;;
17201;SDS011;8717;53.588;10.176;2023-07-28T10:24:14;1.45;;;1.35;;
17201;SDS011;8717;53.588;10.176;2023-07-28T10:26:41;1.45;;;1.35;;
17201;SDS011;8717;53.588;10.176;2023-07-28T10:29:09;2.10;;;1.42;;
17201;SDS011;8717;53.588;10.176;2023-07-28T10:31:39;1.20;;;0.98;;
17201;SDS011;8717;53.588;10.176;2023-07-28T10:34:16;1.90;;;1.25;;
17201;SDS011;8717;53.588;10.176;2023-07-28T10:36:43;1.27;;;1.20;;
17201;SDS011;8717;53.588;10.176;2023-07-28T10:39:14;1.58;;;1.00;;
17201;SDS011;8717;53.588;10.176;2023-07-28T10:44:28;1.48;;;1.30;;
17201;SDS011;8717;53.588;10.176;2023-07-28T10:46:56;1.30;;;1.20;;
17201;SDS011;8717;53.588;10.176;2023-07-28T10:49:23;1.45;;;1.35;;
17201;SDS011;8717;53.588;10.176;2023-07-28T10:51:50;1.48;;;0.98;;
17201;SDS011;8717;53.588;10.176;2023-07-28T10:54:17;1.20;;;1.10;;
17201;SDS011;8717;53.588;10.176;2023-07-28T10:56:45;1.13;;;1.00;;
17201;SDS011;8717;53.588;10.176;2023-07-28T10:59:12;1.00;;;1.00;;
17201;SDS011;8717;53.588;10.176;2023-07-28T11:01:40;1.17;;;1.08;;
17201;SDS011;8717;53.588;10.176;2023-07-28T11:04:10;1.30;;;1.02;;
17201;SDS011;8717;53.588;10.176;2023-07-28T11:06:39;2.15;;;1.05;;
17201;SDS011;8717;53.588;10.176;2023-07-28T11:09:08;1.40;;;1.17;;
17201;SDS011;8717;53.588;10.176;2023-07-28T11:11:35;1.45;;;1.30;;
17201;SDS011;8717;53.588;10.176;2023-07-28T11:14:04;1.55;;;1.45;;
17201;SDS011;8717;53.588;10.176;2023-07-28T11:16:32;1.05;;;1.05;;
17201;SDS011;8717;53.588;10.176;2023-07-28T11:19:00;1.40;;;1.30;;
17201;SDS011;8717;53.588;10.176;2023-07-28T11:21:29;1.40;;;1.15;;
17201;SDS011;8717;53.588;10.176;2023-07-28T11:23:56;2.17;;;1.27;;
17201;SDS011;8717;53.588;10.176;2023-07-28T11:26:22;1.40;;;1.30;;
17201;SDS011;8717;53.588;10.176;2023-07-28T11:28:49;1.30;;;1.20;;
17201;SDS011;8717;53.588;10.176;2023-07-28T11:31:18;1.50;;;1.40;;
17201;SDS011;8717;53.588;10.176;2023-07-28T11:33:50;1.30;;;1.20;;
17201;SDS011;8717;53.588;10.176;2023-07-28T11:36:21;1.40;;;1.30;;
17201;SDS011;8717;53.588;10.176;2023-07-28T11:38:50;1.40;;;1.30;;
17201;SDS011;8717;53.588;10.176;2023-07-28T11:41:17;1.60;;;1.50;;
17201;SDS011;8717;53.588;10.176;2023-07-28T11:43:45;1.20;;;1.10;;
17201;SDS011;8717;53.588;10.176;2023-07-28T11:46:33;1.33;;;1.08;;
17201;SDS011;8717;53.588;10.176;2023-07-28T11:49:07;1.23;;;1.13;;
17201;SDS011;8717;53.588;10.176;2023-07-28T11:51:38;1.20;;;1.13;;
17201;SDS011;8717;53.588;10.176;2023-07-28T11:54:10;1.40;;;1.30;;
17201;SDS011;8717;53.588;10.176;2023-07-28T11:56:39;1.38;;;1.27;;
17201;SDS011;8717;53.588;10.176;2023-07-28T11:59:06;1.40;;;1.30;;
17201;SDS011;8717;53.588;10.176;2023-07-28T12:01:33;1.20;;;1.10;;
17201;SDS011;8717;53.588;10.176;2023-07-28T12:06:59;1.20;;;1.10;;
17201;SDS011;8717;53.588;10.176;2023-07-28T12:09:29;2.05;;;1.40;;
17201;SDS011;8717;53.588;10.176;2023-07-28T12:11:56;1.30;;;1.20;;
17201;SDS011;8717;53.588;10.176;2023-07-28T12:14:31;1.52;;;1.35;;
17201;SDS011;8717;53.588;10.176;2023-07-28T12:16:59;1.83;;;1.20;;
17201;SDS011;8717;53.588;10.176;2023-07-28T12:19:26;1.60;;;1.50;;
17201;SDS011;8717;53.588;10.176;2023-07-28T12:21:53;1.77;;;1.50;;
17201;SDS011;8717;53.588;10.176;2023-07-28T12:24:20;2.42;;;1.48;;
17201;SDS011;8717;53.588;10.176;2023-07-28T12:26:48;2.08;;;1.42;;
17201;SDS011;8717;53.588;10.176;2023-07-28T12:29:16;1.55;;;1.45;;
17201;SDS011;8717;53.588;10.176;2023-07-28T12:31:43;1.70;;;1.60;;
17201;SDS011;8717;53.588;10.176;2023-07-28T12:34:10;1.50;;;1.40;;
17201;SDS011;8717;53.588;10.176;2023-07-28T12:36:37;1.67;;;1.38;;
17201;SDS011;8717;53.588;10.176;2023-07-28T12:39:04;1.40;;;1.30;;
17201;SDS011;8717;53.588;10.176;2023-07-28T12:41:31;1.60;;;1.50;;
17201;SDS011;8717;53.588;10.176;2023-07-28T12:43:59;1.50;;;1.23;;
17201;SDS011;8717;53.588;10.176;2023-07-28T12:46:25;1.60;;;1.50;;
17201;SDS011;8717;53.588;10.176;2023-07-28T12:48:52;1.90;;;1.15;;
17201;SDS011;8717;53.588;10.176;2023-07-28T12:51:19;3.08;;;1.50;;
17201;SDS011;8717;53.588;10.176;2023-07-28T12:53:46;1.20;;;1.10;;
17201;SDS011;8717;53.588;10.176;2023-07-28T12:56:12;1.08;;;1.02;;
17201;SDS011;8717;53.588;10.176;2023-07-28T12:58:39;1.92;;;1.05;;
17201;SDS011;8717;53.588;10.176;2023-07-28T13:01:07;1.30;;;1.20;;
17201;SDS011;8717;53.588;10.176;2023-07-28T13:03:36;1.40;;;1.30;;
17201;SDS011;8717;53.588;10.176;2023-07-28T13:06:03;1.40;;;1.30;;
17201;SDS011;8717;53.588;10.176;2023-07-28T13:08:33;1.20;;;1.10;;
17201;SDS011;8717;53.588;10.176;2023-07-28T13:11:00;2.47;;;1.15;;
17201;SDS011;8717;53.588;10.176;2023-07-28T13:13:26;1.10;;;1.00;;
17201;SDS011;8717;53.588;10.176;2023-07-28T13:15:54;1.40;;;1.30;;
17201;SDS011;8717;53.588;10.176;2023-07-28T13:18:23;1.20;;;1.10;;
17201;SDS011;8717;53.588;10.176;2023-07-28T13:20:49;1.50;;;0.90;;
17201;SDS011;8717;53.588;10.176;2023-07-28T13:23:16;1.50;;;1.40;;
17201;SDS011;8717;53.588;10.176;2023-07-28T13:25:43;1.20;;;0.90;;
17201;SDS011;8717;53.588;10.176;2023-07-28T13:28:10;1.25;;;0.98;;
17201;SDS011;8717;53.588;10.176;2023-07-28T13:30:37;1.00;;;0.90;;
17201;SDS011;8717;53.588;10.176;2023-07-28T13:33:03;1.00;;;0.90;;
17201;SDS011;8717;53.588;10.176;2023-07-28T13:35:33;1.00;;;1.00;;
17201;SDS011;8717;53.588;10.176;2023-07-28T13:37:59;1.05;;;1.00;;
17201;SDS011;8717;53.588;10.176;2023-07-28T13:40:26;1.33;;;1.00;;
17201;SDS011;8717;53.588;10.176;2023-07-28T13:42:52;2.58;;;1.00;;
17201;SDS011;8717;53.588;10.176;2023-07-28T13:45:19;0.70;;;0.70;;
17201;SDS011;8717;53.588;10.176;2023-07-28T13:47:46;1.85;;;1.20;;
17201;SDS011;8717;53.588;10.176;2023-07-28T13:50:12;1.95;;;1.20;;
17201;SDS011;8717;53.588;10.176;2023-07-28T13:52:40;1.20;;;1.00;;
17201;SDS011;8717;53.588;10.176;2023-07-28T13:55:08;1.20;;;1.10;;
17201;SDS011;8717;53.588;10.176;2023-07-28T13:57:34;1.08;;;1.00;;
17201;SDS011;8717;53.588;10.176;2023-07-28T14:00:01;1.38;;;0.88;;
17201;SDS011;8717;53.588;10.176;2023-07-28T14:02:30;1.20;;;1.10;;
17201;SDS011;8717;53.588;10.176;2023-07-28T14:04:57;0.90;;;0.90;;
17201;SDS011;8717;53.588;10.176;2023-07-28T14:07:23;0.82;;;0.70;;
17201;SDS011;8717;53.588;10.176;2023-07-28T14:09:51;1.65;;;0.95;;
17201;SDS011;8717;53.588;10.176;2023-07-28T14:12:18;1.25;;;1.15;;
17201;SDS011;8717;53.588;10.176;2023-07-28T14:14:45;1.05;;;0.95;;
17201;SDS011;8717;53.588;10.176;2023-07-28T14:17:11;1.27;;;0.95;;
17201;SDS011;8717;53.588;10.176;2023-07-28T14:19:38;1.50;;;0.80;;
17201;SDS011;8717;53.588;10.176;2023-07-28T14:22:05;1.00;;;0.90;;
17201;SDS011;8717;53.588;10.176;2023-07-28T14:24:32;0.80;;;0.70;;
17201;SDS011;8717;53.588;10.176;2023-07-28T14:27:00;1.02;;;0.80;;
17201;SDS011;8717;53.588;10.176;2023-07-28T14:29:27;1.30;;;0.80;;
17201;SDS011;8717;53.588;10.176;2023-07-28T14:31:54;1.08;;;0.90;;
17201;SDS011;8717;53.588;10.176;2023-07-28T14:34:21;1.75;;;0.90;;
17201;SDS011;8717;53.588;10.176;2023-07-28T14:36:47;0.70;;;0.70;;
17201;SDS011;8717;53.588;10.176;2023-07-28T14:39:14;1.75;;;0.60;;
17201;SDS011;8717;53.588;10.176;2023-07-28T14:41:41;0.60;;;0.60;;
17201;SDS011;8717;53.588;10.176;2023-07-28T14:44:09;1.30;;;0.80;;
17201;SDS011;8717;53.588;10.176;2023-07-28T14:46:36;1.02;;;0.93;;
17201;SDS011;8717;53.588;10.176;2023-07-28T14:49:03;0.70;;;0.70;;
17201;SDS011;8717;53.588;10.176;2023-07-28T14:51:30;1.40;;;0.90;;
17201;SDS011;8717;53.588;10.176;2023-07-28T14:53:56;2.15;;;0.70;;
17201;SDS011;8717;53.588;10.176;2023-07-28T14:56:23;1.33;;;0.80;;
17201;SDS011;8717;53.588;10.176;2023-07-28T14:58:50;0.77;;;0.77;;